Track Винокуров Стас

Time Latitude Longitude Accuracy (66% radius in meters) Altitude (meters) Speed (km/hour) Bearing (degrees) Battery (%) GPS flag
09:44:48 44.558967 38.197369 6 86.954270591509 0.67743736505508 196.42639160156 78 1 delete
09:44:36 44.558955 38.197404 8 86.83138208176 0.18981410562992 139.61764526367 78 1 delete
09:44:24 44.558959 38.197422 4 86.788415327756 0.017844572663307 6.1917533874512 78 1 delete
09:44:12 44.558976 38.197418 4 86.468999847468 0.057670798152685 6.1917533874512 78 1 delete
09:44:03 44.558966 38.197417 6 86.374890381721 0.18426610529423 6.1917533874512 78 1 delete
09:43:51 44.558975 38.197411 6 87.112159605 0.34608238935471 254.70960998535 78 1 delete
09:43:36 44.558990 38.197391 12 87.50404447476 0.27837750315666 333.96322631836 78 1 delete
09:43:23 44.558967 38.197388 12 88.130471254013 0.28669139742851 355.3132019043 78 1 delete
09:43:11 44.558966 38.197421 4 88.7740720765 0.11600392311811 153.59909057617 78 1 delete
09:43:05 44.558976 38.197430 6 88.742097628302 0.50494503974915 153.59909057617 78 1 delete
09:42:53 44.559001 38.197378 6 88.769032468854 0.016170367598534 103.18379974365 78 1 delete
09:42:41 44.559010 38.197355 8 90.92404850644 0.055085245519876 272.94485473633 78 1 delete
09:42:32 44.558992 38.197359 12 90.938344854848 0.050401244312525 180.49523925781 78 1 delete
09:42:29 44.558998 38.197385 12 90.947492860975 0.039941385388374 180.49523925781 78 1 delete
09:42:20 44.559035 38.197410 6 91.05587177175 1.4719879627228 221.37107849121 78 1 delete
09:42:14 44.559115 38.197442 8 91.562083006576 1.7946344614029 196.79895019531 78 1 delete
09:42:11 44.559158 38.197472 6 91.854651869028 0 212.732421875 78 1 delete
09:42:08 44.559203 38.197497 12 92.299786618959 2.021338224411 209.55108642578 78 1 delete
09:42:05 44.559258 38.197553 12 93.008603438194 2.0381400585175 202.75141906738 78 1 delete
09:42:02 44.559334 38.197581 8 93.710087508424 1.9394323825836 180.88024902344 78 1 delete
09:41:59 44.559411 38.197605 12 94.102620267281 1.9883246421814 184.86938476562 78 1 delete
09:41:56 44.559500 38.197625 8 94.577799927244 1.9935775995255 187.18000793457 78 1 delete
09:41:53 44.559549 38.197632 12 95.020487617211 2.1246030330658 191.3797454834 78 1 delete
09:41:50 44.559605 38.197662 16 95.662662515265 2.1574544906616 200.20874023438 78 1 delete
09:41:47 44.559665 38.197704 12 96.287347846287 2.1079978942871 209.84004211426 78 1 delete
09:41:44 44.559709 38.197762 8 96.967120676908 2.1159620285034 191.56260681152 78 1 delete
09:41:41 44.559762 38.197809 16 97.774924594276 2.093156337738 184.90406799316 78 1 delete
09:41:38 44.559807 38.197875 8 98.520159546418 2.0805325508118 192.49853515625 78 1 delete
09:41:35 44.559851 38.197936 8 99.170447818701 2.0899012088776 205.90991210938 78 1 delete
09:41:32 44.559910 38.197986 8 100.04565312393 2.0841019153595 221.84237670898 78 1 delete
09:41:29 44.559953 38.198045 12 101.18956135687 2.0820050239563 204.7186126709 78 1 delete
09:41:26 44.560017 38.198092 12 102.29446979125 2.0038533210754 211.97297668457 78 1 delete
09:41:23 44.560071 38.198112 12 103.4137375175 2.0123889446259 185.46154785156 78 1 delete
09:41:20 44.560131 38.198138 8 104.60720545461 2.0315980911255 185.48881530762 78 1 delete
09:41:17 44.560181 38.198175 12 105.8151752169 2.0368931293488 168.85733032227 78 1 delete
09:41:14 44.560221 38.198178 12 106.81153489887 2.0399494171143 224.57678222656 78 1 delete
09:41:11 44.560248 38.198249 12 107.70824839799 1.6804522275925 232.75273132324 78 1 delete
09:41:05 44.560250 38.198316 8 109.21203926829 1.175440788269 324.09622192383 78 1 delete
09:40:56 44.560244 38.198382 12 110.54996877736 1.5869073867798 258.61154174805 78 1 delete
09:40:53 44.560277 38.198481 12 110.77793675325 0.56520813703537 301.84661865234 78 1 delete
09:40:44 44.560293 38.198536 12 111.22077087805 1.4079023599625 301.71664428711 78 1 delete
09:40:38 44.560282 38.198586 16 111.56922457616 0 245.73295593262 78 1 delete
09:40:32 44.560283 38.198621 12 111.72102268795 0.76347184181213 245.73295593262 78 1 delete
09:40:26 44.560302 38.198688 16 111.86174771275 0 181.85333251953 78 1 delete
09:40:17 44.560302 38.198688 8 111.80874559594 0 181.85333251953 78 1 delete
09:40:05 44.560302 38.198688 16 111.80538631436 0 181.85333251953 78 1 delete
09:39:53 44.560302 38.198688 16 111.25313619582 0 181.85333251953 78 1 delete
09:39:44 44.560310 38.198693 8 109.9863390337 0 181.85333251953 78 1 delete
09:39:32 44.560315 38.198700 12 108.44994502153 0 181.85333251953 78 1 delete
09:39:26 44.560315 38.198700 12 108.27672838096 0.57026565074921 181.85333251953 78 1 delete